Time;durP1;ratioP1;P1;durP2;ratioP2;P2;SDS_P1;SDS_P2;PMS_P1;PMS_P2;Temp;Humidity;BMP_temperature;BMP_pressure;BME280_temperature;BME280_humidity;BME280_pressure;Samples;Min_cycle;Max_cycle;Signal;HPM_P1;HPM_P2
2022/09/27 00:00:04;;;;;;;3.97;3.40;;;;;;;10.79;100.00;99372.56;4975706;28;20207;-75
2022/09/27 00:02:37;;;;;;;3.80;3.40;;;;;;;10.77;100.00;99364.06;4973403;28;20247;-75
2022/09/27 00:05:03;;;;;;;4.77;3.20;;;;;;;10.81;100.00;99375.97;4977228;28;20188;-75
2022/09/27 00:07:29;;;;;;;5.30;3.10;;;;;;;10.81;100.00;99375.13;4976877;28;20191;-75
2022/09/27 00:09:54;;;;;;;4.00;3.40;;;;;;;10.79;100.00;99366.59;4975613;28;20567;-75
2022/09/27 00:12:20;;;;;;;4.47;3.60;;;;;;;10.80;100.00;99370.88;4980431;28;20195;-75
2022/09/27 00:14:45;;;;;;;3.83;3.53;;;;;;;10.76;100.00;99369.16;4991898;28;20254;-75
2022/09/27 00:17:10;;;;;;;3.73;3.40;;;;;;;10.79;100.00;99366.59;4976572;28;20184;-75
2022/09/27 00:19:36;;;;;;;5.50;4.07;;;;;;;10.77;100.00;99363.19;4974668;28;20660;-75
2022/09/27 00:22:02;;;;;;;4.97;3.83;;;;;;;10.78;100.00;99363.19;4975912;28;20211;-74
2022/09/27 00:24:28;;;;;;;5.33;3.70;;;;;;;10.80;100.00;99361.47;4974596;28;20555;-74
2022/09/27 00:26:53;;;;;;;4.10;3.57;;;;;;;10.81;100.00;99355.50;4975827;28;20192;-74
2022/09/27 00:29:19;;;;;;;6.43;3.73;;;;;;;10.83;100.00;99355.50;4989753;28;20192;-74
2022/09/27 00:31:46;;;;;;;4.80;3.73;;;;;;;10.84;100.00;99352.06;4988999;28;20227;-74
2022/09/27 00:34:23;;;;;;;6.67;3.70;;;;;;;10.83;100.00;99343.53;4993083;28;20607;-74
2022/09/27 00:36:49;;;;;;;4.87;4.03;;;;;;;10.83;100.00;99352.94;4970995;28;20200;-74
2022/09/27 00:39:15;;;;;;;4.60;3.83;;;;;;;10.83;100.00;99348.66;4956619;28;20222;-74
2022/09/27 00:41:41;;;;;;;5.37;3.90;;;;;;;10.81;100.00;99341.84;4961140;28;21014;-74
2022/09/27 00:44:32;;;;;;;4.30;3.60;;;;;;;10.82;100.00;99338.41;4975165;28;20306;-74
2022/09/27 00:47:26;;;;;;;8.40;4.20;;;;;;;10.82;100.00;99338.41;4967037;28;20283;-74
2022/09/27 00:50:31;;;;;;;6.53;4.17;;;;;;;10.83;100.00;99335.00;4969266;28;20644;-74
2022/09/27 00:53:16;;;;;;;5.67;4.00;;;;;;;10.82;100.00;99329.03;4941405;28;20900;-74
2022/09/27 00:55:53;;;;;;;4.57;3.37;;;;;;;10.84;100.00;99327.31;4981545;28;20200;-74
2022/09/27 00:58:22;;;;;;;3.73;3.43;;;;;;;10.84;100.00;99321.34;4979374;28;20227;-74
2022/09/27 01:00:52;;;;;;;5.30;4.03;;;;;;;10.83;100.00;99327.31;4976347;28;20212;-75
2022/09/27 01:03:29;;;;;;;5.67;4.00;;;;;;;10.81;100.00;99327.34;4983901;28;20300;-75
2022/09/27 01:05:57;;;;;;;5.67;3.77;;;;;;;10.83;100.00;99328.16;4988201;28;20196;-75
2022/09/27 01:08:22;;;;;;;6.60;4.23;;;;;;;10.82;100.00;99323.03;4975011;28;20777;-75
2022/09/27 01:11:06;;;;;;;5.17;4.67;;;;;;;10.83;100.00;99323.03;4994508;28;20225;-75
2022/09/27 01:13:48;;;;;;;7.83;4.90;;;;;;;10.84;100.00;99321.34;4978216;28;20300;-75
2022/09/27 01:16:31;;;;;;;5.50;4.57;;;;;;;10.83;100.00;99311.97;4979700;28;20192;-75
2022/09/27 01:19:14;;;;;;;5.93;4.23;;;;;;;10.83;100.00;99309.41;4975637;28;20192;-75
2022/09/27 01:21:47;;;;;;;5.67;4.20;;;;;;;10.83;100.00;99310.22;4977929;28;20257;-75
2022/09/27 01:24:25;;;;;;;4.67;4.23;;;;;;;10.85;100.00;99310.22;4988657;28;20215;-75
2022/09/27 01:27:35;;;;;;;4.93;4.30;;;;;;;10.86;100.00;99306.81;4981665;28;20356;-75
2022/09/27 01:30:13;;;;;;;6.00;4.10;;;;;;;10.84;100.00;99305.97;4979642;28;20650;-74
2022/09/27 01:33:06;;;;;;;6.10;4.50;;;;;;;10.83;100.00;99307.69;4976743;28;20224;-74
2022/09/27 01:35:31;;;;;;;6.00;4.10;;;;;;;10.82;100.00;99305.13;4998150;28;20282;-74
2022/09/27 01:38:11;;;;;;;4.90;4.40;;;;;;;10.83;100.00;99294.88;4974847;28;20340;-74
2022/09/27 01:40:42;;;;;;;5.83;4.27;;;;;;;10.85;100.00;99300.84;4965010;28;20699;-74
2022/09/27 01:43:53;;;;;;;6.90;4.20;;;;;;;10.83;100.00;99291.47;4944080;28;20215;-74
2022/09/27 01:46:35;;;;;;;4.17;3.83;;;;;;;10.84;100.00;99286.34;4972816;28;20219;-74
2022/09/27 01:49:34;;;;;;;5.23;4.30;;;;;;;10.86;100.00;99276.94;4971064;28;20200;-74
2022/09/27 01:52:04;;;;;;;5.97;4.60;;;;;;;10.84;100.00;99283.78;4980094;28;20308;-74
2022/09/27 01:54:38;;;;;;;4.47;4.07;;;;;;;10.84;100.00;99278.69;4976391;28;20197;-74
2022/09/27 01:57:29;;;;;;;4.90;4.40;;;;;;;10.84;100.00;99273.56;4973944;28;20201;-74
2022/09/27 02:00:07;;;;;;;4.93;4.27;;;;;;;10.87;100.00;99275.25;4977288;28;20571;-74
2022/09/27 02:02:44;;;;;;;5.10;4.57;;;;;;;10.87;100.00;99278.63;4978180;28;20212;-75
2022/09/27 02:05:25;;;;;;;5.10;3.87;;;;;;;10.87;100.00;99272.69;4977806;28;20658;-74
2022/09/27 02:08:03;;;;;;;5.10;4.60;;;;;;;10.87;100.00;99267.56;4997966;28;20326;-74
2022/09/27 02:10:40;;;;;;;4.83;4.40;;;;;;;10.84;100.00;99273.56;4987117;28;20211;-74
2022/09/27 02:13:23;;;;;;;4.80;4.27;;;;;;;10.86;100.00;99270.97;4974000;28;20176;-75
2022/09/27 02:16:06;;;;;;;4.87;4.17;;;;;;;10.86;100.00;99266.69;4973350;28;20188;-74
2022/09/27 02:19:00;;;;;;;5.93;4.43;;;;;;;10.86;100.00;99266.69;4968233;28;20212;-74
2022/09/27 02:21:39;;;;;;;8.50;3.87;;;;;;;10.88;100.00;99266.69;4975567;28;20235;-74
2022/09/27 02:24:09;;;;;;;4.73;4.27;;;;;;;10.87;100.00;99258.16;4971963;28;20201;-74
2022/09/27 02:26:41;;;;;;;6.63;4.07;;;;;;;10.86;100.00;99266.69;4976925;28;20271;-74
2022/09/27 02:29:15;;;;;;;5.27;4.30;;;;;;;10.87;100.00;99250.47;4973695;28;20184;-74
2022/09/27 02:31:47;;;;;;;4.80;4.37;;;;;;;10.86;100.00;99247.91;4977679;28;20188;-74
2022/09/27 02:34:19;;;;;;;6.50;4.17;;;;;;;10.88;100.00;99248.78;4994619;28;20180;-74
2022/09/27 02:36:44;;;;;;;4.30;3.90;;;;;;;10.89;100.00;99248.75;4959568;28;20189;-74
2022/09/27 02:39:10;;;;;;;6.37;4.00;;;;;;;10.90;100.00;99245.34;4990847;28;20251;-74
2022/09/27 02:41:36;;;;;;;4.20;3.70;;;;;;;10.91;100.00;99248.72;4979854;28;20262;-75
2022/09/27 02:44:07;;;;;;;5.97;4.27;;;;;;;10.92;100.00;99248.72;4974854;28;20689;-75
2022/09/27 02:46:57;;;;;;;4.17;3.77;;;;;;;10.90;100.00;99245.34;4989156;28;20270;-74
2022/09/27 02:49:40;;;;;;;4.20;3.80;;;;;;;10.91;100.00;99247.03;4975380;28;20701;-74
2022/09/27 02:52:40;;;;;;;6.17;4.00;;;;;;;10.93;100.00;99241.91;4945498;28;20196;-74
2022/09/27 02:55:30;;;;;;;4.53;3.90;;;;;;;10.90;100.00;99236.78;4966001;28;20276;-74
2022/09/27 02:58:14;;;;;;;4.00;3.70;;;;;;;10.90;100.00;99237.66;4992339;28;20275;-75
2022/09/27 03:01:23;;;;;;;4.20;3.77;;;;;;;10.92;100.00;99237.66;4976023;28;20755;-75
2022/09/27 03:04:47;;;;;;;4.07;3.77;;;;;;;10.90;100.00;99237.66;4978029;28;20227;-75
2022/09/27 03:07:14;;;;;;;4.90;4.40;;;;;;;10.90;100.00;99234.22;4945232;29;20190;-75
2022/09/27 03:09:48;;;;;;;4.50;3.87;;;;;;;10.90;100.00;99237.66;4947162;29;20224;-75
2022/09/27 03:12:24;;;;;;;4.17;3.73;;;;;;;10.90;100.00;99224.84;4969602;28;20284;-75
2022/09/27 03:14:58;;;;;;;5.50;4.00;;;;;;;10.92;100.00;99225.66;4960174;28;20218;-75
2022/09/27 03:17:43;;;;;;;4.77;4.20;;;;;;;10.92;100.00;99222.28;4986425;28;20274;-75
2022/09/27 03:20:27;;;;;;;4.30;3.90;;;;;;;10.93;100.00;99223.97;4976747;28;20282;-75
2022/09/27 03:23:12;;;;;;;4.53;3.70;;;;;;;10.91;100.00;99221.41;4981458;28;20222;-75
2022/09/27 03:25:38;;;;;;;4.20;3.90;;;;;;;10.89;100.00;99220.59;4965867;28;20186;-75
2022/09/27 03:28:03;;;;;;;4.50;4.10;;;;;;;10.88;100.00;99212.91;4979922;28;20196;-73
2022/09/27 03:30:29;;;;;;;4.87;4.30;;;;;;;10.89;100.00;99217.16;4975858;28;20230;-74
2022/09/27 03:32:55;;;;;;;5.70;4.27;;;;;;;10.90;100.00;99214.59;4970706;28;20268;-74
2022/09/27 03:35:36;;;;;;;5.07;4.23;;;;;;;10.85;100.00;99218.91;4973119;28;20192;-74
2022/09/27 03:38:02;;;;;;;4.33;3.93;;;;;;;10.87;100.00;99222.28;4973819;28;20195;-73
2022/09/27 03:40:28;;;;;;;5.33;4.83;;;;;;;10.83;100.00;99207.00;4973501;28;20212;-74
2022/09/27 03:42:53;;;;;;;4.70;4.30;;;;;;;10.81;100.00;99206.13;4975483;28;20216;-74
2022/09/27 03:45:19;;;;;;;5.50;4.60;;;;;;;10.81;100.00;99206.13;4985900;28;20220;-74
2022/09/27 03:47:45;;;;;;;5.10;4.60;;;;;;;10.81;100.00;99207.00;4976714;28;20592;-74
2022/09/27 03:50:12;;;;;;;5.07;4.57;;;;;;;10.83;100.00;99195.00;4975290;28;20307;-74
2022/09/27 03:52:37;;;;;;;5.23;4.70;;;;;;;10.82;100.00;99201.00;4971825;28;20192;-74
2022/09/27 03:55:03;;;;;;;4.57;4.13;;;;;;;10.85;100.00;99202.69;4976546;28;20199;-73
2022/09/27 03:57:30;;;;;;;4.73;4.33;;;;;;;10.84;100.00;99204.41;4989767;28;20275;-75
2022/09/27 03:59:58;;;;;;;5.57;4.50;;;;;;;10.82;100.00;99195.88;4985310;28;20706;-75
2022/09/27 04:02:47;;;;;;;5.67;5.00;;;;;;;10.81;100.00;99186.50;4977000;28;20204;-75
2022/09/27 04:05:26;;;;;;;4.87;4.47;;;;;;;10.83;100.00;99196.75;4975686;28;20224;-75
2022/09/27 04:08:19;;;;;;;7.60;5.00;;;;;;;10.84;100.00;99194.19;4960080;28;20196;-75
2022/09/27 04:10:45;;;;;;;4.47;4.07;;;;;;;10.77;100.00;99191.66;4952499;28;20270;-75
2022/09/27 04:13:11;;;;;;;5.53;4.60;;;;;;;10.80;100.00;99194.19;4985578;28;20189;-75
2022/09/27 04:15:47;;;;;;;6.50;4.73;;;;;;;10.81;100.00;99190.78;4965588;28;20253;-75
2022/09/27 04:18:31;;;;;;;5.13;4.63;;;;;;;10.78;100.00;99183.13;4964521;28;20199;-75
2022/09/27 04:21:19;;;;;;;6.13;5.07;;;;;;;10.79;100.00;99189.94;4956969;28;20573;-75
2022/09/27 04:23:50;;;;;;;4.57;4.17;;;;;;;10.79;100.00;99193.34;4966614;28;20290;-75
2022/09/27 04:26:19;;;;;;;5.27;4.77;;;;;;;10.78;100.00;99183.97;4981835;28;20200;-75
2022/09/27 04:28:58;;;;;;;5.10;4.60;;;;;;;10.76;100.00;99185.72;4954377;28;20266;-75
2022/09/27 04:31:23;;;;;;;5.20;4.70;;;;;;;10.74;100.00;99182.28;4974656;28;20688;-75
2022/09/27 04:33:54;;;;;;;6.90;5.63;;;;;;;10.78;100.00;99183.97;4974918;28;20191;-75
2022/09/27 04:36:27;;;;;;;6.07;5.07;;;;;;;10.79;100.00;99184.81;4978158;28;20736;-75
2022/09/27 04:39:13;;;;;;;4.73;4.33;;;;;;;10.78;100.00;99183.13;4961980;28;20280;-75
2022/09/27 04:41:41;;;;;;;6.03;5.43;;;;;;;10.77;100.00;99184.84;4976677;28;20314;-75
2022/09/27 04:44:07;;;;;;;5.33;4.90;;;;;;;10.79;100.00;99184.81;4960021;28;20299;-75
2022/09/27 04:46:33;;;;;;;5.60;5.10;;;;;;;10.79;100.00;99190.78;4977289;28;20246;-75
2022/09/27 04:48:59;;;;;;;5.50;5.00;;;;;;;10.78;100.00;99190.81;4987932;28;20251;-75
2022/09/27 04:51:26;;;;;;;6.43;4.97;;;;;;;10.78;100.00;99183.97;4975151;28;20212;-74
2022/09/27 04:53:54;;;;;;;5.73;4.63;;;;;;;10.77;100.00;99184.84;4969989;28;20219;-75
2022/09/27 04:56:20;;;;;;;5.20;4.80;;;;;;;10.74;100.00;99182.28;4968307;28;20199;-75
2022/09/27 04:58:45;;;;;;;5.90;5.40;;;;;;;10.76;100.00;99183.16;4980427;28;20287;-75
2022/09/27 05:01:12;;;;;;;5.03;4.63;;;;;;;10.78;100.00;99180.56;4989353;28;20208;-75
2022/09/27 05:04:01;;;;;;;5.63;5.13;;;;;;;10.79;100.00;99185.66;4961984;28;20338;-75
2022/09/27 05:06:28;;;;;;;5.40;4.90;;;;;;;10.76;100.00;99185.72;4989358;28;20619;-74
2022/09/27 05:08:57;;;;;;;6.20;5.60;;;;;;;10.78;100.00;99186.53;4972362;28;20279;-75
2022/09/27 05:11:28;;;;;;;5.10;4.60;;;;;;;10.79;100.00;99177.97;4978444;28;20200;-75
2022/09/27 05:14:28;;;;;;;5.87;5.37;;;;;;;10.78;100.00;99178.84;4969983;28;20196;-75
2022/09/27 05:17:13;;;;;;;6.07;5.43;;;;;;;10.80;100.00;99183.97;4971392;28;20216;-75
2022/09/27 05:19:48;;;;;;;6.87;6.17;;;;;;;10.78;100.00;99183.13;4965482;28;20223;-75
2022/09/27 05:22:19;;;;;;;6.03;5.53;;;;;;;10.79;100.00;99184.81;4987156;28;20177;-75
2022/09/27 05:24:44;;;;;;;7.00;6.30;;;;;;;10.79;100.00;99187.38;4966629;28;20195;-75
2022/09/27 05:27:15;;;;;;;7.47;5.97;;;;;;;10.78;100.00;99190.81;4968334;28;20192;-75
2022/09/27 05:29:41;;;;;;;6.03;5.43;;;;;;;10.77;100.00;99186.53;4976431;28;20235;-75
2022/09/27 05:32:14;;;;;;;7.20;6.50;;;;;;;10.75;100.00;99189.13;4968684;28;20604;-75
2022/09/27 05:34:41;;;;;;;6.20;5.47;;;;;;;10.78;100.00;99185.69;4983875;28;20192;-75
2022/09/27 05:37:07;;;;;;;6.73;6.03;;;;;;;10.74;100.00;99186.59;4966646;28;20711;-75
2022/09/27 05:39:36;;;;;;;6.37;5.77;;;;;;;10.74;100.00;99184.84;4969383;28;20678;-75
2022/09/27 05:42:03;;;;;;;6.93;5.63;;;;;;;10.76;100.00;99197.66;4970951;28;20180;-75
2022/09/27 05:44:29;;;;;;;6.27;5.33;;;;;;;10.75;100.00;99190.84;4971984;28;20192;-75
2022/09/27 05:47:04;;;;;;;6.90;6.20;;;;;;;10.79;100.00;99200.19;4953333;28;20189;-75
2022/09/27 05:49:31;;;;;;;6.10;5.37;;;;;;;10.80;100.00;99202.75;4968700;28;20200;-75
2022/09/27 05:51:57;;;;;;;6.93;5.63;;;;;;;10.80;100.00;99192.50;4970803;28;20287;-74
2022/09/27 05:54:25;;;;;;;7.03;6.03;;;;;;;10.83;100.00;99195.00;4976466;28;20417;-74
2022/09/27 05:56:59;;;;;;;6.67;6.07;;;;;;;10.88;100.00;99195.00;4969921;28;20279;-75
2022/09/27 05:59:46;;;;;;;6.83;6.23;;;;;;;10.85;100.00;99195.00;4990217;28;20209;-75
2022/09/27 06:02:21;;;;;;;7.83;7.03;;;;;;;10.84;100.00;99194.19;4978987;28;20278;-75
2022/09/27 06:05:13;;;;;;;8.13;7.33;;;;;;;10.84;100.00;99194.19;4967651;28;20201;-75
2022/09/27 06:07:39;;;;;;;8.67;7.80;;;;;;;10.86;100.00;99201.81;4972120;28;20724;-75
2022/09/27 06:10:09;;;;;;;10.20;8.63;;;;;;;10.85;100.00;99206.13;4968407;28;20224;-75
2022/09/27 06:12:35;;;;;;;9.17;8.27;;;;;;;10.86;100.00;99202.69;4974609;28;20179;-73
2022/09/27 06:15:03;;;;;;;9.40;8.37;;;;;;;10.87;100.00;99198.44;4970318;28;20180;-73
2022/09/27 06:17:34;;;;;;;9.83;8.73;;;;;;;10.86;100.00;99202.69;4972437;28;20188;-74
2022/09/27 06:20:03;;;;;;;10.57;9.07;;;;;;;10.86;100.00;99207.81;4959896;28;20283;-73
2022/09/27 06:22:29;;;;;;;10.20;9.13;;;;;;;10.87;100.00;99204.38;4960486;28;20287;-74
2022/09/27 06:24:59;;;;;;;10.03;8.77;;;;;;;10.86;100.00;99200.13;4966188;28;20195;-74
2022/09/27 06:27:29;;;;;;;11.23;10.03;;;;;;;10.85;100.00;99203.56;4963190;28;20195;-73
2022/09/27 06:30:05;;;;;;;13.73;9.90;;;;;;;10.88;100.00;99205.25;4975711;28;20208;-73
2022/09/27 06:32:59;;;;;;;13.20;10.23;;;;;;;10.88;100.00;99211.19;4977796;28;20216;-73
2022/09/27 06:35:38;;;;;;;12.43;9.67;;;;;;;10.91;100.00;99208.63;4980749;28;20193;-74
2022/09/27 06:38:08;;;;;;;14.97;10.40;;;;;;;10.91;100.00;99203.50;4966219;28;20264;-73
2022/09/27 06:40:35;;;;;;;15.60;11.20;;;;;;;10.92;100.00;99212.88;4960723;28;20208;-73
2022/09/27 06:43:20;;;;;;;15.27;11.67;;;;;;;10.93;100.00;99206.88;4969180;28;20251;-72
2022/09/27 06:46:07;;;;;;;17.43;11.97;;;;;;;10.91;100.00;99211.19;4965155;28;20240;-72
2022/09/27 06:49:11;;;;;;;17.43;11.83;;;;;;;10.95;100.00;99212.84;4954743;28;20201;-73
2022/09/27 06:51:38;;;;;;;17.23;11.63;;;;;;;10.97;100.00;99212.84;4972436;28;20581;-73
2022/09/27 06:54:04;;;;;;;14.87;11.70;;;;;;;10.98;100.00;99217.09;4968026;28;20185;-73
2022/09/27 06:56:30;;;;;;;14.00;11.20;;;;;;;11.00;100.00;99221.34;4979177;28;20212;-73
2022/09/27 07:01:40;;;;;;;14.07;11.13;;;;;;;11.05;100.00;99222.16;4972147;28;20406;-73
2022/09/27 07:04:28;;;;;;;15.67;10.77;;;;;;;11.06;100.00;99228.97;4962685;28;20940;-74
2022/09/27 07:07:23;;;;;;;13.03;10.00;;;;;;;11.03;100.00;99225.59;4903316;28;20203;-74
2022/09/27 07:09:48;;;;;;;12.70;10.17;;;;;;;11.08;100.00;99228.94;4973512;28;20367;-72
2022/09/27 07:12:14;;;;;;;12.37;8.83;;;;;;;11.14;100.00;99231.44;4961807;28;20333;-72
2022/09/27 07:14:41;;;;;;;10.17;7.97;;;;;;;11.19;100.00;99235.69;4960163;28;20189;-72
2022/09/27 07:17:12;;;;;;;10.40;8.67;;;;;;;11.20;100.00;99236.53;4953369;28;20586;-72
2022/09/27 07:19:41;;;;;;;11.67;8.10;;;;;;;11.21;100.00;99236.53;4985636;28;20219;-72
2022/09/27 07:22:08;;;;;;;7.93;6.97;;;;;;;11.16;100.00;99242.56;4985098;28;20271;-72
2022/09/27 07:24:34;;;;;;;9.83;5.83;;;;;;;11.19;100.00;99235.69;4978526;28;20764;-72
2022/09/27 07:27:00;;;;;;;7.40;6.20;;;;;;;11.26;100.00;99233.91;4967945;28;20191;-72
2022/09/27 07:29:26;;;;;;;5.87;5.33;;;;;;;11.27;100.00;99236.47;4986576;28;20683;-72
2022/09/27 07:31:52;;;;;;;6.07;5.47;;;;;;;11.32;100.00;99241.53;4964758;28;20689;-73
2022/09/27 07:34:18;;;;;;;5.57;4.20;;;;;;;11.34;100.00;99242.38;4969808;28;20242;-72
2022/09/27 07:36:44;;;;;;;6.80;4.37;;;;;;;11.38;100.00;99246.63;4973559;28;20805;-72
2022/09/27 07:39:10;;;;;;;4.57;2.97;;;;;;;11.35;100.00;99246.63;4958135;28;20203;-72
2022/09/27 07:41:38;;;;;;;3.13;2.83;;;;;;;11.40;100.00;99250.00;4957729;28;20212;-72
2022/09/27 07:44:04;;;;;;;2.83;2.57;;;;;;;11.36;100.00;99249.19;4970517;28;20213;-72
2022/09/27 07:46:32;;;;;;;3.93;2.40;;;;;;;11.39;100.00;99246.59;4963109;28;20185;-72
2022/09/27 07:49:20;;;;;;;3.40;2.10;;;;;;;11.53;100.00;99254.97;4968101;28;20185;-72
2022/09/27 07:52:04;;;;;;;1.80;1.70;;;;;;;11.53;100.00;99254.16;4969222;28;20294;-72
2022/09/27 07:54:48;;;;;;;1.57;1.47;;;;;;;11.64;100.00;99253.22;4964642;28;20207;-74
2022/09/27 07:57:45;;;;;;;1.93;1.77;;;;;;;11.80;100.00;99254.72;4958100;28;20200;-72
2022/09/27 08:00:13;;;;;;;2.17;1.67;;;;;;;11.85;100.00;99262.38;4959541;28;20239;-71
2022/09/27 08:02:42;;;;;;;1.50;1.40;;;;;;;12.01;100.00;99261.31;4970411;28;20224;-73
2022/09/27 08:05:09;;;;;;;2.00;1.30;;;;;;;12.01;100.00;99266.44;4969026;28;20191;-72
2022/09/27 08:07:35;;;;;;;1.83;1.20;;;;;;;12.19;100.00;99261.09;4983926;28;20240;-73
2022/09/27 08:10:00;;;;;;;2.10;1.30;;;;;;;12.38;100.00;99265.13;4961337;28;20208;-73
2022/09/27 08:12:26;;;;;;;1.60;0.93;;;;;;;12.26;100.00;99270.44;4965196;28;20247;-73
2022/09/27 08:14:51;;;;;;;1.27;1.03;;;;;;;12.24;100.00;99267.88;4970299;28;20220;-73
2022/09/27 08:17:18;;;;;;;2.07;0.90;;;;;;;12.33;99.66;99262.63;4964114;28;20236;-73
2022/09/27 08:20:06;;;;;;;1.33;0.77;;;;;;;12.50;99.90;99272.66;4962568;28;20591;-73
2022/09/27 08:22:50;;;;;;;1.43;0.80;;;;;;;12.47;99.01;99273.56;4979340;28;20216;-73
2022/09/27 08:25:42;;;;;;;1.17;0.80;;;;;;;12.35;99.06;99283.16;4956326;28;20698;-73
2022/09/27 08:28:40;;;;;;;1.53;0.83;;;;;;;12.50;98.59;99285.50;4962641;28;20197;-73
2022/09/27 08:31:16;;;;;;;1.23;0.60;;;;;;;12.53;98.57;99291.44;4975445;28;20209;-72
2022/09/27 08:33:41;;;;;;;3.10;0.80;;;;;;;12.58;99.10;99291.38;4950820;28;20228;-73
2022/09/27 08:36:11;;;;;;;0.70;0.70;;;;;;;12.52;98.68;99292.31;4960123;28;20204;-73
2022/09/27 08:38:37;;;;;;;1.77;0.80;;;;;;;12.43;98.93;99294.13;4970684;28;20188;-72
2022/09/27 08:41:46;;;;;;;1.07;0.70;;;;;;;12.27;99.16;99296.09;4960561;28;20208;-72
2022/09/27 08:44:41;;;;;;;1.20;0.70;;;;;;;12.15;99.24;99296.22;4967059;28;20282;-73
2022/09/27 08:47:22;;;;;;;1.10;0.93;;;;;;;12.19;98.64;99303.03;4976071;28;20223;-72
2022/09/27 08:50:09;;;;;;;0.93;0.83;;;;;;;12.24;99.00;99308.94;4970225;28;20270;-73
2022/09/27 08:52:43;;;;;;;0.70;0.67;;;;;;;12.25;98.02;99302.06;4957983;28;20231;-74
2022/09/27 08:55:18;;;;;;;0.70;0.70;;;;;;;12.34;98.29;99301.97;4964333;28;20188;-73
2022/09/27 08:57:51;;;;;;;1.17;0.70;;;;;;;12.21;97.60;99308.13;4983189;28;20206;-73
2022/09/27 09:00:17;;;;;;;1.97;0.80;;;;;;;12.20;98.85;99311.53;4959161;28;20283;-73
2022/09/27 09:02:43;;;;;;;0.70;0.70;;;;;;;12.20;98.49;99314.97;4965975;28;20203;-73
2022/09/27 09:05:14;;;;;;;1.70;0.60;;;;;;;12.23;98.21;99306.38;4979558;28;20195;-73
2022/09/27 09:08:01;;;;;;;0.70;0.70;;;;;;;12.41;98.34;99307.03;4954918;28;20185;-73
2022/09/27 09:14:01;;;;;;;3.13;0.87;;;;;;;12.28;98.27;99315.75;4975008;28;20180;-72
2022/09/27 09:17:04;;;;;;;1.60;1.20;;;;;;;12.07;99.29;99315.16;4972737;28;20195;-73
2022/09/27 09:20:02;;;;;;;2.10;1.10;;;;;;;12.00;100.00;99313.50;4982016;28;20888;-73
2022/09/27 09:23:02;;;;;;;1.87;0.90;;;;;;;12.05;100.00;99322.00;4972425;28;20311;-73
2022/09/27 09:25:54;;;;;;;1.50;1.23;;;;;;;12.22;100.00;99320.09;4978880;28;20189;-74
2022/09/27 09:28:28;;;;;;;1.77;1.10;;;;;;;12.29;99.42;99327.69;4976176;28;20192;-69
2022/09/27 09:31:23;;;;;;;2.07;1.00;;;;;;;12.63;97.88;99320.41;4978296;28;20212;-68
2022/09/27 09:33:56;;;;;;;2.03;1.00;;;;;;;12.68;97.86;99323.78;4974508;28;20180;-68
2022/09/27 09:36:31;;;;;;;2.70;1.00;;;;;;;12.55;97.38;99325.66;4988618;28;20189;-74
2022/09/27 09:39:21;;;;;;;1.50;0.87;;;;;;;12.44;97.13;99327.50;4974103;28;20649;-74
2022/09/27 09:42:10;;;;;;;1.27;0.70;;;;;;;12.42;96.42;99334.38;4966949;28;20243;-73
2022/09/27 09:44:40;;;;;;;1.00;0.70;;;;;;;12.48;96.02;99331.72;4960994;28;20201;-73
2022/09/27 09:47:25;;;;;;;1.10;0.80;;;;;;;12.57;95.25;99317.91;4988905;28;20216;-72
2022/09/27 09:49:57;;;;;;;3.60;0.90;;;;;;;12.68;95.32;99326.34;4964524;28;20204;-74
2022/09/27 09:52:27;;;;;;;2.00;1.00;;;;;;;12.44;94.54;99335.19;4967319;28;20533;-72
2022/09/27 09:55:01;;;;;;;3.23;0.80;;;;;;;12.39;94.91;99334.41;4981472;28;20215;-73
2022/09/27 09:57:35;;;;;;;1.17;0.60;;;;;;;12.57;94.72;99329.03;4980478;28;20179;-72
2022/09/27 10:00:16;;;;;;;0.97;0.63;;;;;;;12.57;95.08;99329.03;4964641;28;20212;-73
2022/09/27 10:02:44;;;;;;;0.80;0.67;;;;;;;12.77;94.76;99329.63;4962464;28;20291;-73
2022/09/27 10:05:23;;;;;;;1.23;0.70;;;;;;;12.84;94.51;99331.25;4971321;28;20180;-73
2022/09/27 10:07:59;;;;;;;1.00;0.70;;;;;;;13.12;94.30;99331.72;4970747;28;20196;-72
2022/09/27 10:10:26;;;;;;;1.20;0.87;;;;;;;13.53;92.83;99331.91;4975317;28;20255;-73
2022/09/27 10:12:52;;;;;;;2.03;0.80;;;;;;;13.60;92.63;99335.22;4974041;28;20222;-73
2022/09/27 10:15:24;;;;;;;1.03;0.80;;;;;;;13.74;91.38;99331.53;4996016;28;20271;-73
2022/09/27 10:17:57;;;;;;;1.30;0.90;;;;;;;13.95;90.71;99328.56;4971200;28;20273;-73
2022/09/27 10:20:54;;;;;;;1.70;0.70;;;;;;;14.35;89.06;99326.94;4963766;28;20299;-74
2022/09/27 10:23:23;;;;;;;1.90;0.70;;;;;;;14.58;88.24;99329.03;4972944;28;20212;-73
2022/09/27 10:26:07;;;;;;;1.30;0.63;;;;;;;14.30;88.85;99327.91;4983716;28;20272;-73
2022/09/27 10:28:49;;;;;;;1.57;0.83;;;;;;;14.68;86.41;99331.41;4976803;28;20271;-73
2022/09/27 10:31:19;;;;;;;1.00;0.80;;;;;;;14.23;88.73;99334.06;4974046;28;20232;-70
2022/09/27 10:34:00;;;;;;;1.00;0.67;;;;;;;14.08;88.00;99337.75;4978043;28;20737;-75
2022/09/27 10:36:33;;;;;;;1.27;0.70;;;;;;;13.99;89.12;99339.66;4965841;28;20239;-74
2022/09/27 10:39:03;;;;;;;0.70;0.60;;;;;;;13.88;91.03;99341.56;4980984;28;20185;-74
2022/09/27 10:41:43;;;;;;;1.97;0.60;;;;;;;14.06;88.72;99336.94;4993331;28;20203;-73
2022/09/27 10:44:15;;;;;;;3.13;0.80;;;;;;;14.00;88.83;99343.94;4987112;28;20212;-74
2022/09/27 10:46:44;;;;;;;2.67;0.80;;;;;;;13.86;88.75;99343.34;4978577;28;20348;-74
2022/09/27 10:49:41;;;;;;;1.77;0.93;;;;;;;14.15;89.21;99343.63;4962953;28;20221;-74
2022/09/27 10:52:35;;;;;;;0.90;0.60;;;;;;;14.41;87.26;99349.16;4958904;28;20196;-74
2022/09/27 10:55:20;;;;;;;2.20;1.00;;;;;;;14.79;86.18;99349.22;4969796;28;20184;-74
2022/09/27 10:57:51;;;;;;;0.80;0.60;;;;;;;14.93;85.14;99342.03;4968382;28;20191;-74
2022/09/27 11:00:32;;;;;;;1.27;0.60;;;;;;;14.96;81.70;99342.78;4961329;28;20220;-74
2022/09/27 11:03:15;;;;;;;0.63;0.50;;;;;;;14.97;83.14;99346.22;4973478;28;20209;-74
2022/09/27 11:05:42;;;;;;;0.43;0.43;;;;;;;15.31;82.39;99347.13;4974938;28;20223;-75
2022/09/27 11:08:17;;;;;;;0.93;0.73;;;;;;;15.45;81.29;99345.09;4966744;28;20196;-74
2022/09/27 11:11:05;;;;;;;1.70;0.63;;;;;;;15.93;78.26;99344.72;4971741;28;20874;-74
2022/09/27 11:13:34;;;;;;;0.83;0.50;;;;;;;15.61;79.79;99344.69;4958104;28;20181;-74
2022/09/27 11:16:43;;;;;;;0.50;0.30;;;;;;;15.64;79.61;99352.38;4983576;28;20188;-74
2022/09/27 11:19:27;;;;;;;1.50;0.50;;;;;;;15.52;80.28;99349.25;4976956;28;20231;-74
2022/09/27 11:22:02;;;;;;;0.67;0.40;;;;;;;15.88;79.44;99359.47;4973646;28;20282;-74
2022/09/27 11:24:46;;;;;;;0.60;0.47;;;;;;;14.98;81.12;99356.50;4962372;28;20218;-74
2022/09/27 11:28:10;;;;;;;1.03;0.50;;;;;;;14.64;83.03;99365.84;4964859;28;20224;-74
2022/09/27 11:30:50;;;;;;;0.40;0.40;;;;;;;14.37;83.56;99356.09;4947396;29;20304;-75
2022/09/27 11:33:55;;;;;;;0.57;0.43;;;;;;;14.37;86.10;99366.38;4926295;28;20189;-74
2022/09/27 11:36:48;;;;;;;1.00;0.53;;;;;;;14.38;86.76;99369.81;4945741;28;20692;-73
2022/09/27 11:39:46;;;;;;;0.60;0.53;;;;;;;14.26;86.62;99362.31;4963456;28;20213;-74
2022/09/27 11:42:43;;;;;;;0.70;0.50;;;;;;;14.03;87.20;99370.44;4970847;28;20188;-73
2022/09/27 11:45:36;;;;;;;0.40;0.40;;;;;;;13.98;87.92;99366.25;4968279;28;20240;-74
2022/09/27 11:48:22;;;;;;;0.73;0.40;;;;;;;13.79;85.17;99368.31;4965003;28;20966;-74
2022/09/27 11:50:59;;;;;;;0.93;0.43;;;;;;;13.79;85.70;99368.31;4963491;28;20211;-74
2022/09/27 11:53:45;;;;;;;3.30;0.60;;;;;;;13.94;87.26;99365.47;4966130;28;20258;-74
2022/09/27 11:56:36;;;;;;;0.90;0.60;;;;;;;14.00;87.74;99367.91;4973335;28;20196;-74
2022/09/27 11:59:26;;;;;;;1.17;0.60;;;;;;;13.83;87.54;99363.97;4976273;28;20729;-74
2022/09/27 12:01:58;;;;;;;1.83;0.57;;;;;;;13.91;87.49;99364.69;4973497;28;20337;-75
2022/09/27 12:04:49;;;;;;;1.17;0.70;;;;;;;13.79;87.51;99358.03;4991867;28;20242;-74
2022/09/27 12:07:27;;;;;;;0.70;0.70;;;;;;;13.76;87.27;99362.38;4993093;28;20191;-74
2022/09/27 12:09:59;;;;;;;1.10;0.70;;;;;;;13.85;88.77;99362.22;5004398;28;20213;-74
2022/09/27 12:12:29;;;;;;;2.93;0.90;;;;;;;13.70;87.46;99368.47;4981506;28;20319;-74
2022/09/27 12:15:00;;;;;;;1.13;0.70;;;;;;;13.80;87.38;99369.16;4994756;28;20195;-74